KERO2: Robert S. Kerr Lock & Dam & Reservoir (L&D 15)

Data processed at Sat 13Aug2022 03:30


All information presented herein is the property of the government of the United States of America and may be revised or deleted at any time without prior notice.
Dissemination of this information without the expressed written consent of the Public Affairs Office, Tulsa District U.S. Army Corps of Engineers is strictly prohibited.
These data are gathered electronically and, as presented, have not undergone any form of quality control. These data are not guaranteed to be valid or correct.
Go to home page.
Go to station list.

Upstream stations:

Downstream station:
Previous Day
Next Day
Current Day
    
SHEF ID:       KERO2     RS Kerr LD15
STATION TYPE:  NAVIGATION LOCK
Navigation Pool:  Bottom =   458.00, Top =   460.00

               PRECIP ELEVATION   STORAGE   TW-ELEV    INFLOW   RELEASE  AIR-TEMP  WIND-DIRWIND-SPEED REL-HUMID SOLAR-RAD   VOLTAGE  BAT-LOAD
                   in        ft     ac-ft        ft       cfs       cfs         F       deg       mph         %      W/m2      volt      volt
              Ccp-Rev   Ccp-Rev   Ccp-Rev   Ccp-Rev  Rev-Regi  Rev-Regi   Ccp-Rev   Ccp-Rev   Ccp-Rev   Ccp-Rev   Ccp-Rev   Ccp-Rev   Ccp-Rev
(US/Central)
08/12 00:00      0.00    459.75    514915    412.66      8376        37     80.13     47.20      1.98     68.51      0.00     13.39     13.00
08/12 01:00      0.00    459.77    515777    412.13      9158         0     77.92     40.00      1.71     73.51      0.00     13.39     13.00
08/12 02:00      0.00    459.81    517501    412.27      7833         0     75.61     50.60      1.84     75.41      0.00     13.38     13.00
08/12 03:00      0.00    459.82    517932    412.29      9389         0     74.41      4.30      0.58     80.05      0.00     13.39     13.00
08/12 04:00      0.00    459.83    518363    412.04      7823         0     73.54     18.80      1.70     83.96      0.00     13.39     13.00
08/12 05:00      0.00    459.87    520087    412.29      4692         0     72.99     17.10      0.82     86.28      0.00     13.42     13.00
08/12 06:00      0.00    459.85    519225    412.58      5377     15250     71.01     30.10      1.10     87.68      0.00     13.39     13.00
08/12 07:00      0.00    459.91    521811    413.05      8627     15400     70.45      9.40      1.12     90.79      3.00     13.39     13.00
08/12 08:00      0.00    459.82    517932    412.89     10550     15400     74.41     54.30      3.43     85.30    113.00     13.39     13.00
08/12 09:00      0.00    459.83    518363    412.85     10550     15400     75.74     53.30      3.36     82.01    332.00     13.39     13.00
08/12 10:00      0.00    459.85    519225    412.88     11522     15400     81.00     49.00      3.15     73.69    551.00     13.42     13.00
08/12 11:00      0.00    459.82    517932    412.90     13105     15400     83.84     38.90      2.03     69.41    745.00     13.40     13.00
08/12 12:00      0.00    459.80    517070    412.86      9074     15600     86.04     39.90      2.00     62.52    893.00     13.40     13.00
08/12 13:00      0.00    459.80    517070    412.84      5622     15400     88.57     28.00      2.15     54.27    996.00     13.40     13.00
08/12 14:00      0.00    459.77    515777    412.82     15505     15400     88.99     35.70      2.23     51.40   1024.00     13.40     13.00
08/12 15:00      0.00    459.76    515346    412.80     16148     15400     91.31     35.30      3.01     48.90    992.00     13.43     13.00
08/12 16:00      0.00    459.85    519225    412.78     16365     15400     91.85     34.30      2.47     47.25    904.00     13.42     13.00
08/12 17:00      0.00    459.84    518794    412.76     18807     15400     92.95     31.00      2.69     46.94    748.00     13.41     13.00
08/12 18:00      0.00    459.85    519225    412.75     20480     15400     93.16     37.80      3.82     49.38    546.00     13.41     13.00
08/12 19:00      0.00    459.85    519225    412.73     13018     15400     92.52     46.60      3.72     45.90    325.00     13.41     13.00
08/12 20:00      0.00    459.86    519656    412.72     11403     15250     88.12     41.20      3.75     51.95    112.00     13.41     13.00
08/12 21:00      0.00    459.86    519656    412.67     10555     15250     84.81     30.00      2.15     61.84      4.00     13.41     13.00
08/12 22:00      0.00    459.77    515777    412.58      5693     15250     82.51     36.20      1.65     70.20      0.00     13.43     13.00
08/12 23:00      ----      ----      ----      ----      ----      ----      ----      ----      ----      ----      ----      ----      ----